sensor_id;sensor_type;location;lat;lon;timestamp;temperature;humidity
29363;DHT22;16349;53.672;10.014;2022-08-19T00:00:49;19.60;99.90
29363;DHT22;16349;53.672;10.014;2022-08-19T00:03:17;19.60;99.90
29363;DHT22;16349;53.672;10.014;2022-08-19T00:05:43;19.60;99.90
29363;DHT22;16349;53.672;10.014;2022-08-19T00:08:12;19.50;99.90
29363;DHT22;16349;53.672;10.014;2022-08-19T00:10:39;19.50;99.90
29363;DHT22;16349;53.672;10.014;2022-08-19T00:13:06;19.60;99.90
29363;DHT22;16349;53.672;10.014;2022-08-19T00:15:33;19.50;99.90
29363;DHT22;16349;53.672;10.014;2022-08-19T00:18:00;19.50;99.90
29363;DHT22;16349;53.672;10.014;2022-08-19T00:20:27;19.50;99.90
29363;DHT22;16349;53.672;10.014;2022-08-19T00:22:54;19.50;99.90
29363;DHT22;16349;53.672;10.014;2022-08-19T00:25:22;19.40;99.90
29363;DHT22;16349;53.672;10.014;2022-08-19T00:27:49;19.40;99.90
29363;DHT22;16349;53.672;10.014;2022-08-19T00:30:16;19.40;99.90
29363;DHT22;16349;53.672;10.014;2022-08-19T00:32:43;19.40;99.90
29363;DHT22;16349;53.672;10.014;2022-08-19T00:35:10;19.40;99.90
29363;DHT22;16349;53.672;10.014;2022-08-19T00:37:38;19.40;99.90
29363;DHT22;16349;53.672;10.014;2022-08-19T00:40:10;19.40;99.90
29363;DHT22;16349;53.672;10.014;2022-08-19T00:42:39;19.40;99.90
29363;DHT22;16349;53.672;10.014;2022-08-19T00:45:11;19.30;99.90
29363;DHT22;16349;53.672;10.014;2022-08-19T00:47:39;19.30;99.90
29363;DHT22;16349;53.672;10.014;2022-08-19T00:50:08;19.30;99.90
29363;DHT22;16349;53.672;10.014;2022-08-19T00:52:39;19.30;99.90
29363;DHT22;16349;53.672;10.014;2022-08-19T00:55:13;19.30;99.90
29363;DHT22;16349;53.672;10.014;2022-08-19T00:57:45;19.30;99.90
29363;DHT22;16349;53.672;10.014;2022-08-19T01:00:15;19.30;99.90
29363;DHT22;16349;53.672;10.014;2022-08-19T01:02:43;19.30;99.90
29363;DHT22;16349;53.672;10.014;2022-08-19T01:05:13;19.30;99.90
29363;DHT22;16349;53.672;10.014;2022-08-19T01:07:41;19.30;99.90
29363;DHT22;16349;53.672;10.014;2022-08-19T01:10:14;19.30;99.90
29363;DHT22;16349;53.672;10.014;2022-08-19T01:12:43;19.30;99.90
29363;DHT22;16349;53.672;10.014;2022-08-19T01:15:13;19.20;99.90
29363;DHT22;16349;53.672;10.014;2022-08-19T01:17:41;19.20;99.90
29363;DHT22;16349;53.672;10.014;2022-08-19T01:20:12;19.20;99.90
29363;DHT22;16349;53.672;10.014;2022-08-19T01:22:44;19.20;99.90
29363;DHT22;16349;53.672;10.014;2022-08-19T01:25:13;19.20;99.90
29363;DHT22;16349;53.672;10.014;2022-08-19T01:27:42;19.20;99.90
29363;DHT22;16349;53.672;10.014;2022-08-19T01:30:12;19.20;99.90
29363;DHT22;16349;53.672;10.014;2022-08-19T01:32:39;19.20;99.90
29363;DHT22;16349;53.672;10.014;2022-08-19T01:35:06;19.20;99.90
29363;DHT22;16349;53.672;10.014;2022-08-19T01:37:44;19.20;99.90
29363;DHT22;16349;53.672;10.014;2022-08-19T01:40:11;19.20;99.90
29363;DHT22;16349;53.672;10.014;2022-08-19T01:42:38;19.20;99.90
29363;DHT22;16349;53.672;10.014;2022-08-19T01:45:07;19.20;99.90
29363;DHT22;16349;53.672;10.014;2022-08-19T01:47:35;19.10;99.90
29363;DHT22;16349;53.672;10.014;2022-08-19T01:50:02;19.10;99.90
29363;DHT22;16349;53.672;10.014;2022-08-19T01:52:30;19.10;99.90
29363;DHT22;16349;53.672;10.014;2022-08-19T01:54:58;19.10;99.90
29363;DHT22;16349;53.672;10.014;2022-08-19T01:57:25;19.10;99.90
29363;DHT22;16349;53.672;10.014;2022-08-19T01:59:52;19.00;99.90
29363;DHT22;16349;53.672;10.014;2022-08-19T02:02:19;18.90;99.90
29363;DHT22;16349;53.672;10.014;2022-08-19T02:04:46;18.90;99.90
29363;DHT22;16349;53.672;10.014;2022-08-19T02:07:13;18.90;99.90
29363;DHT22;16349;53.672;10.014;2022-08-19T02:09:40;18.90;99.90
29363;DHT22;16349;53.672;10.014;2022-08-19T02:12:09;18.90;99.90
29363;DHT22;16349;53.672;10.014;2022-08-19T02:14:36;18.90;99.90
29363;DHT22;16349;53.672;10.014;2022-08-19T02:17:03;18.80;99.90
29363;DHT22;16349;53.672;10.014;2022-08-19T02:19:30;18.80;99.90
29363;DHT22;16349;53.672;10.014;2022-08-19T02:21:58;18.80;99.90
29363;DHT22;16349;53.672;10.014;2022-08-19T02:24:26;18.80;99.90
29363;DHT22;16349;53.672;10.014;2022-08-19T02:26:53;18.80;99.90
29363;DHT22;16349;53.672;10.014;2022-08-19T02:29:22;18.80;99.90
29363;DHT22;16349;53.672;10.014;2022-08-19T02:31:49;18.70;99.90
29363;DHT22;16349;53.672;10.014;2022-08-19T02:34:17;18.70;99.90
29363;DHT22;16349;53.672;10.014;2022-08-19T02:36:44;18.70;99.90
29363;DHT22;16349;53.672;10.014;2022-08-19T02:39:11;18.70;99.90
29363;DHT22;16349;53.672;10.014;2022-08-19T02:41:37;18.70;99.90
29363;DHT22;16349;53.672;10.014;2022-08-19T02:44:04;18.70;99.90
29363;DHT22;16349;53.672;10.014;2022-08-19T02:46:33;18.60;99.90
29363;DHT22;16349;53.672;10.014;2022-08-19T02:49:03;18.60;99.90
29363;DHT22;16349;53.672;10.014;2022-08-19T02:51:32;18.60;99.90
29363;DHT22;16349;53.672;10.014;2022-08-19T02:54:00;18.60;99.90
29363;DHT22;16349;53.672;10.014;2022-08-19T02:56:27;18.60;99.90
29363;DHT22;16349;53.672;10.014;2022-08-19T02:58:55;18.60;99.90
29363;DHT22;16349;53.672;10.014;2022-08-19T03:01:25;18.60;99.90
29363;DHT22;16349;53.672;10.014;2022-08-19T03:03:55;18.60;99.90
29363;DHT22;16349;53.672;10.014;2022-08-19T03:06:23;18.60;99.90
29363;DHT22;16349;53.672;10.014;2022-08-19T03:08:50;18.60;99.90
29363;DHT22;16349;53.672;10.014;2022-08-19T03:11:20;18.60;99.90
29363;DHT22;16349;53.672;10.014;2022-08-19T03:13:47;18.60;99.90
29363;DHT22;16349;53.672;10.014;2022-08-19T03:16:17;18.70;99.90
29363;DHT22;16349;53.672;10.014;2022-08-19T03:18:44;18.70;99.90
29363;DHT22;16349;53.672;10.014;2022-08-19T03:21:16;18.70;99.90
29363;DHT22;16349;53.672;10.014;2022-08-19T03:23:44;18.80;99.90
29363;DHT22;16349;53.672;10.014;2022-08-19T03:26:11;18.80;99.90
29363;DHT22;16349;53.672;10.014;2022-08-19T03:28:40;18.80;99.90
29363;DHT22;16349;53.672;10.014;2022-08-19T03:31:11;18.80;99.90
29363;DHT22;16349;53.672;10.014;2022-08-19T03:33:39;18.70;99.90
29363;DHT22;16349;53.672;10.014;2022-08-19T03:36:09;18.70;99.90
29363;DHT22;16349;53.672;10.014;2022-08-19T03:38:40;18.70;99.90
29363;DHT22;16349;53.672;10.014;2022-08-19T03:41:08;18.70;99.90
29363;DHT22;16349;53.672;10.014;2022-08-19T03:43:36;18.70;99.90
29363;DHT22;16349;53.672;10.014;2022-08-19T03:46:07;18.70;99.90
29363;DHT22;16349;53.672;10.014;2022-08-19T03:48:36;18.80;99.90
29363;DHT22;16349;53.672;10.014;2022-08-19T03:51:05;18.70;99.90
29363;DHT22;16349;53.672;10.014;2022-08-19T03:53:33;18.70;99.90
29363;DHT22;16349;53.672;10.014;2022-08-19T03:56:02;18.70;99.90
29363;DHT22;16349;53.672;10.014;2022-08-19T03:58:29;18.80;99.90
29363;DHT22;16349;53.672;10.014;2022-08-19T04:00:57;18.70;99.90
29363;DHT22;16349;53.672;10.014;2022-08-19T04:03:24;18.70;99.90
29363;DHT22;16349;53.672;10.014;2022-08-19T04:05:53;18.70;99.90
29363;DHT22;16349;53.672;10.014;2022-08-19T04:08:20;18.60;99.90
29363;DHT22;16349;53.672;10.014;2022-08-19T04:10:48;18.60;99.90
29363;DHT22;16349;53.672;10.014;2022-08-19T04:13:17;18.60;99.90
29363;DHT22;16349;53.672;10.014;2022-08-19T04:15:45;18.70;99.90
29363;DHT22;16349;53.672;10.014;2022-08-19T04:18:13;18.70;99.90
29363;DHT22;16349;53.672;10.014;2022-08-19T04:20:42;18.70;99.90
29363;DHT22;16349;53.672;10.014;2022-08-19T04:23:09;18.60;99.90
29363;DHT22;16349;53.672;10.014;2022-08-19T04:25:38;18.60;99.90
29363;DHT22;16349;53.672;10.014;2022-08-19T04:28:05;18.70;99.90
29363;DHT22;16349;53.672;10.014;2022-08-19T04:30:39;18.70;99.90
29363;DHT22;16349;53.672;10.014;2022-08-19T04:33:07;18.70;99.90
29363;DHT22;16349;53.672;10.014;2022-08-19T04:35:36;18.70;99.90
29363;DHT22;16349;53.672;10.014;2022-08-19T04:38:03;18.80;99.90
29363;DHT22;16349;53.672;10.014;2022-08-19T04:40:30;18.80;99.90
29363;DHT22;16349;53.672;10.014;2022-08-19T04:43:15;18.80;99.90
29363;DHT22;16349;53.672;10.014;2022-08-19T04:45:43;18.80;99.90
29363;DHT22;16349;53.672;10.014;2022-08-19T04:48:10;18.80;99.90
29363;DHT22;16349;53.672;10.014;2022-08-19T04:50:41;18.70;99.90
29363;DHT22;16349;53.672;10.014;2022-08-19T04:53:09;18.80;99.90
29363;DHT22;16349;53.672;10.014;2022-08-19T04:55:39;18.70;99.90
29363;DHT22;16349;53.672;10.014;2022-08-19T04:58:07;18.70;99.90
29363;DHT22;16349;53.672;10.014;2022-08-19T05:00:33;18.70;99.90
29363;DHT22;16349;53.672;10.014;2022-08-19T05:03:02;18.70;99.90
29363;DHT22;16349;53.672;10.014;2022-08-19T05:05:28;18.70;99.90
29363;DHT22;16349;53.672;10.014;2022-08-19T05:07:57;18.70;99.90
29363;DHT22;16349;53.672;10.014;2022-08-19T05:10:24;18.70;99.90
29363;DHT22;16349;53.672;10.014;2022-08-19T05:12:50;18.60;99.90
29363;DHT22;16349;53.672;10.014;2022-08-19T05:15:17;18.60;99.90
29363;DHT22;16349;53.672;10.014;2022-08-19T05:17:45;18.60;99.90
29363;DHT22;16349;53.672;10.014;2022-08-19T05:20:27;18.60;99.90
29363;DHT22;16349;53.672;10.014;2022-08-19T05:23:14;18.60;99.90
29363;DHT22;16349;53.672;10.014;2022-08-19T05:25:42;18.60;99.90
29363;DHT22;16349;53.672;10.014;2022-08-19T05:28:08;18.60;99.90
29363;DHT22;16349;53.672;10.014;2022-08-19T05:30:35;18.60;99.90
29363;DHT22;16349;53.672;10.014;2022-08-19T05:33:02;18.60;99.90
29363;DHT22;16349;53.672;10.014;2022-08-19T05:35:30;18.70;99.90
29363;DHT22;16349;53.672;10.014;2022-08-19T05:37:58;18.70;99.90
29363;DHT22;16349;53.672;10.014;2022-08-19T05:40:24;18.60;99.90
29363;DHT22;16349;53.672;10.014;2022-08-19T05:42:51;18.70;99.90
29363;DHT22;16349;53.672;10.014;2022-08-19T05:45:19;18.70;99.90
29363;DHT22;16349;53.672;10.014;2022-08-19T05:47:47;18.70;99.90
29363;DHT22;16349;53.672;10.014;2022-08-19T05:50:14;18.70;99.90
29363;DHT22;16349;53.672;10.014;2022-08-19T05:52:44;18.70;99.90
29363;DHT22;16349;53.672;10.014;2022-08-19T05:55:11;18.70;99.90
29363;DHT22;16349;53.672;10.014;2022-08-19T05:57:39;18.70;99.90
29363;DHT22;16349;53.672;10.014;2022-08-19T06:00:07;18.60;99.90
29363;DHT22;16349;53.672;10.014;2022-08-19T06:02:38;18.60;99.90
29363;DHT22;16349;53.672;10.014;2022-08-19T06:05:06;18.70;99.90
29363;DHT22;16349;53.672;10.014;2022-08-19T06:07:34;18.70;99.90
29363;DHT22;16349;53.672;10.014;2022-08-19T06:10:03;18.70;99.90
29363;DHT22;16349;53.672;10.014;2022-08-19T06:12:31;18.70;99.90
29363;DHT22;16349;53.672;10.014;2022-08-19T06:15:00;18.70;99.90
29363;DHT22;16349;53.672;10.014;2022-08-19T06:17:27;18.70;99.90
29363;DHT22;16349;53.672;10.014;2022-08-19T06:19:55;18.70;99.90
29363;DHT22;16349;53.672;10.014;2022-08-19T06:22:23;18.70;99.90
29363;DHT22;16349;53.672;10.014;2022-08-19T06:24:50;18.80;99.90
29363;DHT22;16349;53.672;10.014;2022-08-19T06:27:19;18.80;99.90
29363;DHT22;16349;53.672;10.014;2022-08-19T06:29:46;18.90;99.90
29363;DHT22;16349;53.672;10.014;2022-08-19T06:32:15;19.10;99.90
29363;DHT22;16349;53.672;10.014;2022-08-19T06:34:43;19.20;99.90
29363;DHT22;16349;53.672;10.014;2022-08-19T06:37:11;19.20;99.90
29363;DHT22;16349;53.672;10.014;2022-08-19T06:39:39;19.20;99.90
29363;DHT22;16349;53.672;10.014;2022-08-19T06:42:07;19.50;99.90
29363;DHT22;16349;53.672;10.014;2022-08-19T06:44:40;19.40;99.90
29363;DHT22;16349;53.672;10.014;2022-08-19T06:47:08;19.30;99.90
29363;DHT22;16349;53.672;10.014;2022-08-19T06:49:36;19.30;99.90
29363;DHT22;16349;53.672;10.014;2022-08-19T06:52:04;19.30;99.90
29363;DHT22;16349;53.672;10.014;2022-08-19T06:54:31;19.40;99.90
29363;DHT22;16349;53.672;10.014;2022-08-19T06:56:59;19.30;99.90
29363;DHT22;16349;53.672;10.014;2022-08-19T06:59:28;19.50;99.90
29363;DHT22;16349;53.672;10.014;2022-08-19T07:02:03;19.60;99.90
29363;DHT22;16349;53.672;10.014;2022-08-19T07:04:31;19.50;99.90
29363;DHT22;16349;53.672;10.014;2022-08-19T07:07:03;19.70;99.90
29363;DHT22;16349;53.672;10.014;2022-08-19T07:09:32;19.50;99.90
29363;DHT22;16349;53.672;10.014;2022-08-19T07:11:58;19.40;99.90
29363;DHT22;16349;53.672;10.014;2022-08-19T07:14:27;19.40;99.90
29363;DHT22;16349;53.672;10.014;2022-08-19T07:16:56;19.30;99.90
29363;DHT22;16349;53.672;10.014;2022-08-19T07:19:25;19.30;99.90
29363;DHT22;16349;53.672;10.014;2022-08-19T07:21:54;19.30;99.90
29363;DHT22;16349;53.672;10.014;2022-08-19T07:24:22;19.40;99.90
29363;DHT22;16349;53.672;10.014;2022-08-19T07:26:51;19.30;99.90
29363;DHT22;16349;53.672;10.014;2022-08-19T07:29:19;19.20;99.90
29363;DHT22;16349;53.672;10.014;2022-08-19T07:31:49;19.20;99.90
29363;DHT22;16349;53.672;10.014;2022-08-19T07:34:17;19.20;99.90
29363;DHT22;16349;53.672;10.014;2022-08-19T07:36:45;19.20;99.90
29363;DHT22;16349;53.672;10.014;2022-08-19T07:39:14;19.20;99.90
29363;DHT22;16349;53.672;10.014;2022-08-19T07:41:44;19.20;99.90
29363;DHT22;16349;53.672;10.014;2022-08-19T07:44:13;19.20;99.90
29363;DHT22;16349;53.672;10.014;2022-08-19T07:46:44;19.30;99.90
29363;DHT22;16349;53.672;10.014;2022-08-19T07:49:12;19.30;99.90
29363;DHT22;16349;53.672;10.014;2022-08-19T07:51:44;19.30;99.90
29363;DHT22;16349;53.672;10.014;2022-08-19T07:54:12;19.30;99.90
29363;DHT22;16349;53.672;10.014;2022-08-19T07:56:39;19.20;99.90
29363;DHT22;16349;53.672;10.014;2022-08-19T07:59:06;19.20;99.90
29363;DHT22;16349;53.672;10.014;2022-08-19T08:01:33;19.20;99.90
29363;DHT22;16349;53.672;10.014;2022-08-19T08:04:00;19.20;99.90
29363;DHT22;16349;53.672;10.014;2022-08-19T08:06:45;19.30;99.90
29363;DHT22;16349;53.672;10.014;2022-08-19T08:09:33;19.30;99.90
29363;DHT22;16349;53.672;10.014;2022-08-19T08:12:03;19.30;99.90
29363;DHT22;16349;53.672;10.014;2022-08-19T08:14:33;19.30;99.90
29363;DHT22;16349;53.672;10.014;2022-08-19T08:17:02;19.30;99.90
29363;DHT22;16349;53.672;10.014;2022-08-19T08:19:29;19.30;99.90
29363;DHT22;16349;53.672;10.014;2022-08-19T08:21:58;19.30;99.90
29363;DHT22;16349;53.672;10.014;2022-08-19T08:24:28;19.40;99.90
29363;DHT22;16349;53.672;10.014;2022-08-19T08:26:57;19.40;99.90
29363;DHT22;16349;53.672;10.014;2022-08-19T08:29:24;19.40;99.90
29363;DHT22;16349;53.672;10.014;2022-08-19T08:31:51;19.40;99.90
29363;DHT22;16349;53.672;10.014;2022-08-19T08:34:19;19.40;99.90
29363;DHT22;16349;53.672;10.014;2022-08-19T08:36:47;19.40;99.90
29363;DHT22;16349;53.672;10.014;2022-08-19T08:39:17;19.40;99.90
29363;DHT22;16349;53.672;10.014;2022-08-19T08:41:48;19.40;99.90
29363;DHT22;16349;53.672;10.014;2022-08-19T08:44:18;19.40;99.90
29363;DHT22;16349;53.672;10.014;2022-08-19T08:46:48;19.40;99.90
29363;DHT22;16349;53.672;10.014;2022-08-19T08:49:33;19.50;99.90
29363;DHT22;16349;53.672;10.014;2022-08-19T08:52:06;19.50;99.90
29363;DHT22;16349;53.672;10.014;2022-08-19T08:54:40;19.50;99.90
29363;DHT22;16349;53.672;10.014;2022-08-19T08:57:11;19.50;99.90
29363;DHT22;16349;53.672;10.014;2022-08-19T08:59:41;19.60;99.90
29363;DHT22;16349;53.672;10.014;2022-08-19T09:02:08;19.50;99.90
29363;DHT22;16349;53.672;10.014;2022-08-19T09:04:35;19.60;99.90
29363;DHT22;16349;53.672;10.014;2022-08-19T09:07:15;19.60;99.90
29363;DHT22;16349;53.672;10.014;2022-08-19T09:09:49;19.60;99.90
29363;DHT22;16349;53.672;10.014;2022-08-19T09:12:20;19.70;99.90
29363;DHT22;16349;53.672;10.014;2022-08-19T09:14:53;19.70;99.90
29363;DHT22;16349;53.672;10.014;2022-08-19T09:17:26;19.70;99.90
29363;DHT22;16349;53.672;10.014;2022-08-19T09:19:59;19.80;99.90
29363;DHT22;16349;53.672;10.014;2022-08-19T09:22:30;19.80;99.90
29363;DHT22;16349;53.672;10.014;2022-08-19T09:24:58;19.90;99.90
29363;DHT22;16349;53.672;10.014;2022-08-19T09:27:26;19.90;99.90
29363;DHT22;16349;53.672;10.014;2022-08-19T09:29:54;19.90;99.90
29363;DHT22;16349;53.672;10.014;2022-08-19T09:32:22;19.90;99.90
29363;DHT22;16349;53.672;10.014;2022-08-19T09:34:49;20.00;99.90
29363;DHT22;16349;53.672;10.014;2022-08-19T09:37:20;19.90;99.90
29363;DHT22;16349;53.672;10.014;2022-08-19T09:39:47;20.00;99.90
29363;DHT22;16349;53.672;10.014;2022-08-19T09:42:15;20.10;99.90
29363;DHT22;16349;53.672;10.014;2022-08-19T09:44:42;20.10;99.90
29363;DHT22;16349;53.672;10.014;2022-08-19T09:47:10;20.20;99.90
29363;DHT22;16349;53.672;10.014;2022-08-19T09:49:39;20.20;99.90
29363;DHT22;16349;53.672;10.014;2022-08-19T09:52:07;20.20;99.90
29363;DHT22;16349;53.672;10.014;2022-08-19T09:54:34;20.20;99.90
29363;DHT22;16349;53.672;10.014;2022-08-19T09:57:01;20.30;99.90
29363;DHT22;16349;53.672;10.014;2022-08-19T09:59:29;20.30;99.90
29363;DHT22;16349;53.672;10.014;2022-08-19T10:01:56;20.20;99.90
29363;DHT22;16349;53.672;10.014;2022-08-19T10:04:23;20.30;99.90
29363;DHT22;16349;53.672;10.014;2022-08-19T10:07:09;20.30;99.90
29363;DHT22;16349;53.672;10.014;2022-08-19T10:09:36;20.30;99.90
29363;DHT22;16349;53.672;10.014;2022-08-19T10:12:04;20.40;99.90
29363;DHT22;16349;53.672;10.014;2022-08-19T10:14:33;20.40;99.90
29363;DHT22;16349;53.672;10.014;2022-08-19T10:17:01;20.50;99.90
29363;DHT22;16349;53.672;10.014;2022-08-19T10:19:29;20.50;99.90
29363;DHT22;16349;53.672;10.014;2022-08-19T10:22:03;20.60;99.90
29363;DHT22;16349;53.672;10.014;2022-08-19T10:24:31;20.60;99.90
29363;DHT22;16349;53.672;10.014;2022-08-19T10:26:59;20.60;99.90
29363;DHT22;16349;53.672;10.014;2022-08-19T10:29:28;20.70;99.90
29363;DHT22;16349;53.672;10.014;2022-08-19T10:31:57;20.60;99.90
29363;DHT22;16349;53.672;10.014;2022-08-19T10:34:26;20.60;99.90
29363;DHT22;16349;53.672;10.014;2022-08-19T10:36:53;20.60;99.90
29363;DHT22;16349;53.672;10.014;2022-08-19T10:39:20;20.60;99.90
29363;DHT22;16349;53.672;10.014;2022-08-19T10:41:46;20.60;99.90
29363;DHT22;16349;53.672;10.014;2022-08-19T10:44:14;20.60;99.90
29363;DHT22;16349;53.672;10.014;2022-08-19T10:46:43;20.50;99.90
29363;DHT22;16349;53.672;10.014;2022-08-19T10:49:14;20.60;99.90
29363;DHT22;16349;53.672;10.014;2022-08-19T10:51:41;20.60;99.90
29363;DHT22;16349;53.672;10.014;2022-08-19T10:54:26;20.60;99.90
29363;DHT22;16349;53.672;10.014;2022-08-19T10:57:13;20.50;99.90
29363;DHT22;16349;53.672;10.014;2022-08-19T10:59:40;20.40;99.90
29363;DHT22;16349;53.672;10.014;2022-08-19T11:02:09;20.50;99.90
29363;DHT22;16349;53.672;10.014;2022-08-19T11:04:39;20.50;99.90
29363;DHT22;16349;53.672;10.014;2022-08-19T11:07:07;20.50;99.90
29363;DHT22;16349;53.672;10.014;2022-08-19T11:09:39;20.50;99.90
29363;DHT22;16349;53.672;10.014;2022-08-19T11:12:06;20.60;99.90
29363;DHT22;16349;53.672;10.014;2022-08-19T11:14:34;20.70;99.90
29363;DHT22;16349;53.672;10.014;2022-08-19T11:17:01;20.60;99.90
29363;DHT22;16349;53.672;10.014;2022-08-19T11:19:29;20.70;99.90
29363;DHT22;16349;53.672;10.014;2022-08-19T11:21:57;20.80;99.90
29363;DHT22;16349;53.672;10.014;2022-08-19T11:24:25;20.90;99.90
29363;DHT22;16349;53.672;10.014;2022-08-19T11:26:54;21.00;99.90
29363;DHT22;16349;53.672;10.014;2022-08-19T11:29:24;21.10;99.90
29363;DHT22;16349;53.672;10.014;2022-08-19T11:31:53;21.10;99.90
29363;DHT22;16349;53.672;10.014;2022-08-19T11:34:21;21.20;99.90
29363;DHT22;16349;53.672;10.014;2022-08-19T11:36:50;21.30;99.90
29363;DHT22;16349;53.672;10.014;2022-08-19T11:39:20;21.40;99.90
29363;DHT22;16349;53.672;10.014;2022-08-19T11:41:47;21.50;99.90
29363;DHT22;16349;53.672;10.014;2022-08-19T11:44:14;21.60;99.90
29363;DHT22;16349;53.672;10.014;2022-08-19T11:46:43;21.60;99.90
29363;DHT22;16349;53.672;10.014;2022-08-19T11:49:11;21.70;99.90
29363;DHT22;16349;53.672;10.014;2022-08-19T11:51:38;21.80;99.90
29363;DHT22;16349;53.672;10.014;2022-08-19T11:54:05;21.80;99.90
29363;DHT22;16349;53.672;10.014;2022-08-19T11:56:33;21.90;99.90
29363;DHT22;16349;53.672;10.014;2022-08-19T11:59:00;22.00;99.90
29363;DHT22;16349;53.672;10.014;2022-08-19T12:01:28;22.00;99.90
29363;DHT22;16349;53.672;10.014;2022-08-19T12:03:56;22.00;99.90
29363;DHT22;16349;53.672;10.014;2022-08-19T12:06:25;22.00;99.90
29363;DHT22;16349;53.672;10.014;2022-08-19T12:08:54;21.90;99.90
29363;DHT22;16349;53.672;10.014;2022-08-19T12:11:21;21.90;99.90
29363;DHT22;16349;53.672;10.014;2022-08-19T12:13:49;21.90;99.90
29363;DHT22;16349;53.672;10.014;2022-08-19T12:16:18;22.00;99.90
29363;DHT22;16349;53.672;10.014;2022-08-19T12:18:45;21.90;99.90
29363;DHT22;16349;53.672;10.014;2022-08-19T12:21:11;21.90;99.90
29363;DHT22;16349;53.672;10.014;2022-08-19T12:23:39;21.80;99.90
29363;DHT22;16349;53.672;10.014;2022-08-19T12:26:06;21.70;99.90
29363;DHT22;16349;53.672;10.014;2022-08-19T12:28:34;21.60;99.90
29363;DHT22;16349;53.672;10.014;2022-08-19T12:31:02;21.60;99.90
29363;DHT22;16349;53.672;10.014;2022-08-19T12:33:29;21.60;99.90
29363;DHT22;16349;53.672;10.014;2022-08-19T12:36:00;21.70;99.90
29363;DHT22;16349;53.672;10.014;2022-08-19T12:38:28;21.80;99.90
29363;DHT22;16349;53.672;10.014;2022-08-19T12:40:55;21.80;99.90
29363;DHT22;16349;53.672;10.014;2022-08-19T12:43:23;21.90;99.90
29363;DHT22;16349;53.672;10.014;2022-08-19T12:45:49;22.00;99.90
29363;DHT22;16349;53.672;10.014;2022-08-19T12:48:18;22.10;99.90
29363;DHT22;16349;53.672;10.014;2022-08-19T12:50:45;22.30;99.90
29363;DHT22;16349;53.672;10.014;2022-08-19T12:53:12;22.30;99.90
29363;DHT22;16349;53.672;10.014;2022-08-19T12:55:39;22.40;99.90
29363;DHT22;16349;53.672;10.014;2022-08-19T12:58:06;22.50;99.90
29363;DHT22;16349;53.672;10.014;2022-08-19T13:00:33;22.50;99.90
29363;DHT22;16349;53.672;10.014;2022-08-19T13:03:00;22.70;99.90
29363;DHT22;16349;53.672;10.014;2022-08-19T13:05:31;22.80;99.90
29363;DHT22;16349;53.672;10.014;2022-08-19T13:07:59;22.80;99.90
29363;DHT22;16349;53.672;10.014;2022-08-19T13:10:30;22.80;99.90
29363;DHT22;16349;53.672;10.014;2022-08-19T13:12:57;22.80;99.90
29363;DHT22;16349;53.672;10.014;2022-08-19T13:15:25;22.70;99.90
29363;DHT22;16349;53.672;10.014;2022-08-19T13:17:54;22.70;99.90
29363;DHT22;16349;53.672;10.014;2022-08-19T13:20:21;22.70;99.90
29363;DHT22;16349;53.672;10.014;2022-08-19T13:22:50;22.70;99.90
29363;DHT22;16349;53.672;10.014;2022-08-19T13:25:18;22.70;99.90
29363;DHT22;16349;53.672;10.014;2022-08-19T13:27:45;22.70;99.90
29363;DHT22;16349;53.672;10.014;2022-08-19T13:30:14;22.70;99.90
29363;DHT22;16349;53.672;10.014;2022-08-19T13:32:58;22.80;99.90
29363;DHT22;16349;53.672;10.014;2022-08-19T13:35:40;22.70;99.90
29363;DHT22;16349;53.672;10.014;2022-08-19T13:38:10;22.70;99.90
29363;DHT22;16349;53.672;10.014;2022-08-19T13:40:38;22.60;99.90
29363;DHT22;16349;53.672;10.014;2022-08-19T13:43:05;22.60;99.90
29363;DHT22;16349;53.672;10.014;2022-08-19T13:45:33;22.60;99.90
29363;DHT22;16349;53.672;10.014;2022-08-19T13:48:01;22.60;99.90
29363;DHT22;16349;53.672;10.014;2022-08-19T13:50:33;22.70;99.90
29363;DHT22;16349;53.672;10.014;2022-08-19T13:53:00;22.60;99.90
29363;DHT22;16349;53.672;10.014;2022-08-19T13:55:29;22.70;99.90
29363;DHT22;16349;53.672;10.014;2022-08-19T13:57:58;22.70;99.90
29363;DHT22;16349;53.672;10.014;2022-08-19T14:00:28;22.70;99.90
29363;DHT22;16349;53.672;10.014;2022-08-19T14:02:56;22.80;99.90
29363;DHT22;16349;53.672;10.014;2022-08-19T14:05:25;22.80;99.90
29363;DHT22;16349;53.672;10.014;2022-08-19T14:07:52;22.90;99.90
29363;DHT22;16349;53.672;10.014;2022-08-19T14:10:20;22.90;99.90
29363;DHT22;16349;53.672;10.014;2022-08-19T14:12:52;22.90;99.90
29363;DHT22;16349;53.672;10.014;2022-08-19T14:15:21;22.80;99.90
29363;DHT22;16349;53.672;10.014;2022-08-19T14:17:48;22.70;99.90
29363;DHT22;16349;53.672;10.014;2022-08-19T14:20:15;22.70;99.90
29363;DHT22;16349;53.672;10.014;2022-08-19T14:22:44;22.70;99.90
29363;DHT22;16349;53.672;10.014;2022-08-19T14:25:13;22.70;99.90
29363;DHT22;16349;53.672;10.014;2022-08-19T14:27:40;22.80;99.90
29363;DHT22;16349;53.672;10.014;2022-08-19T14:30:15;22.80;99.90
29363;DHT22;16349;53.672;10.014;2022-08-19T14:32:42;22.80;99.90
29363;DHT22;16349;53.672;10.014;2022-08-19T14:35:10;22.80;99.90
29363;DHT22;16349;53.672;10.014;2022-08-19T14:37:38;22.70;99.90
29363;DHT22;16349;53.672;10.014;2022-08-19T14:40:07;22.70;99.90
29363;DHT22;16349;53.672;10.014;2022-08-19T14:42:34;22.70;99.90
29363;DHT22;16349;53.672;10.014;2022-08-19T14:45:03;22.70;99.90
29363;DHT22;16349;53.672;10.014;2022-08-19T14:47:32;22.70;99.90
29363;DHT22;16349;53.672;10.014;2022-08-19T14:50:00;22.60;99.90
29363;DHT22;16349;53.672;10.014;2022-08-19T14:52:26;22.70;99.90
29363;DHT22;16349;53.672;10.014;2022-08-19T14:54:53;22.70;99.90
29363;DHT22;16349;53.672;10.014;2022-08-19T14:57:20;22.70;99.90
29363;DHT22;16349;53.672;10.014;2022-08-19T14:59:46;22.70;99.90
29363;DHT22;16349;53.672;10.014;2022-08-19T15:02:14;22.70;99.90
29363;DHT22;16349;53.672;10.014;2022-08-19T15:04:42;22.80;99.90
29363;DHT22;16349;53.672;10.014;2022-08-19T15:07:10;22.80;99.90
29363;DHT22;16349;53.672;10.014;2022-08-19T15:09:37;22.90;99.90
29363;DHT22;16349;53.672;10.014;2022-08-19T15:12:04;22.90;99.90
29363;DHT22;16349;53.672;10.014;2022-08-19T15:14:31;22.90;99.90
29363;DHT22;16349;53.672;10.014;2022-08-19T15:17:01;23.00;99.90
29363;DHT22;16349;53.672;10.014;2022-08-19T15:19:28;23.00;99.90
29363;DHT22;16349;53.672;10.014;2022-08-19T15:21:57;23.10;99.90
29363;DHT22;16349;53.672;10.014;2022-08-19T15:24:25;23.10;99.90